Time;durP1;ratioP1;P1;durP2;ratioP2;P2;SDS_P1;SDS_P2;PMS_P1;PMS_P2;Temp;Humidity;BMP_temperature;BMP_pressure;BME280_temperature;BME280_humidity;BME280_pressure;Samples;Min_cycle;Max_cycle;Signal;HPM_P1;HPM_P2
2023/12/17 00:01:16;;;;;;;;;;;;;;;17.08;45.04;103002.78;4991775;28;1437;-44
2023/12/17 00:03:42;;;;;;;;;;;;;;;18.71;41.67;102998.94;4989445;28;1526;-45
2023/12/17 00:06:07;;;;;;;;;;;;;;;17.71;43.91;103012.00;4991571;28;1175;-47
2023/12/17 00:08:33;;;;;;;;;;;;;;;17.15;44.63;103023.88;4989761;28;1954;-44
2023/12/17 00:10:59;;;;;;;;;;;;;;;17.01;44.78;103024.00;4984972;28;1084;-47
2023/12/17 00:13:24;;;;;;;;;;;;;;;18.00;43.21;103020.59;4987027;28;1172;-48
2023/12/17 00:15:50;;;;;;;;;;;;;;;17.05;44.83;103022.44;4996056;28;1065;-43
2023/12/17 00:18:15;;;;;;;;;;;;;;;18.15;42.76;103022.97;4981497;28;898;-44
2023/12/17 00:20:41;;;;;;;;;;;;;;;17.48;44.29;103025.53;4991328;28;1121;-45
2023/12/17 00:23:07;;;;;;;;;;;;;;;17.31;44.79;103033.50;4989540;28;1148;-46
2023/12/17 00:25:32;;;;;;;;;;;;;;;18.52;41.93;103027.63;4984134;28;1079;-48
2023/12/17 00:27:57;;;;;;;;;;;;;;;17.36;44.17;103037.28;4998116;28;1135;-44
2023/12/17 00:30:23;;;;;;;;;;;;;;;17.04;44.53;103033.69;4985470;28;1903;-46
2023/12/17 00:32:49;;;;;;;;;;;;;;;17.92;43.17;103037.41;4986195;28;1076;-43
2023/12/17 00:35:14;;;;;;;;;;;;;;;17.10;44.73;103038.31;4991038;28;1075;-44
2023/12/17 00:37:40;;;;;;;;;;;;;;;18.31;42.46;103046.31;4988347;28;1053;-44
2023/12/17 00:40:06;;;;;;;;;;;;;;;17.82;43.29;103040.66;4997339;28;1083;-42
2023/12/17 00:42:32;;;;;;;;;;;;;;;17.10;44.72;103050.13;4990979;28;1547;-47
2023/12/17 00:44:57;;;;;;;;;;;;;;;18.15;42.94;103052.44;4983960;28;1051;-48
2023/12/17 00:47:23;;;;;;;;;;;;;;;17.48;44.17;103061.28;4987781;28;1176;-44
2023/12/17 00:49:48;;;;;;;;;;;;;;;16.98;44.59;103057.38;4994188;28;1976;-46
2023/12/17 00:52:14;;;;;;;;;;;;;;;17.97;42.97;103048.59;4997533;28;1095;-45
2023/12/17 00:54:39;;;;;;;;;;;;;;;17.07;44.54;103055.25;4979964;28;1011;-46
2023/12/17 00:57:05;;;;;;;;;;;;;;;17.96;43.36;103055.16;4987810;28;1120;-44
2023/12/17 00:59:30;;;;;;;;;;;;;;;17.65;43.66;103061.56;4984220;28;1164;-42
2023/12/17 01:01:56;;;;;;;;;;;;;;;17.47;44.35;103076.09;4987273;28;1234;-45
2023/12/17 01:04:21;;;;;;;;;;;;;;;18.83;41.08;103072.56;4990117;28;1143;-42
2023/12/17 01:06:47;;;;;;;;;;;;;;;17.50;44.01;103078.41;4995004;28;893;-47
2023/12/17 01:09:12;;;;;;;;;;;;;;;18.04;42.95;103076.88;4984112;28;1902;-47
2023/12/17 01:11:38;;;;;;;;;;;;;;;18.10;42.70;103069.63;4997596;28;1123;-42
2023/12/17 01:14:03;;;;;;;;;;;;;;;17.28;44.05;103081.53;4996928;28;1064;-45
2023/12/17 01:16:29;;;;;;;;;;;;;;;16.91;44.45;103070.34;4997139;28;1146;-44
2023/12/17 01:18:55;;;;;;;;;;;;;;;17.47;43.84;103076.09;4992293;28;889;-45
2023/12/17 01:21:20;;;;;;;;;;;;;;;17.33;44.09;103070.69;4987703;28;1148;-42
2023/12/17 01:23:46;;;;;;;;;;;;;;;17.06;44.67;103070.03;4983912;28;1244;-41
2023/12/17 01:26:19;;;;;;;;;;;;;;;18.34;42.05;103078.91;4997027;28;1083;-41
2023/12/17 01:28:44;;;;;;;;;;;;;;;17.17;44.24;103068.50;4983790;28;1906;-46
2023/12/17 01:31:10;;;;;;;;;;;;;;;16.89;44.53;103073.31;4988711;28;1013;-46
2023/12/17 01:33:35;;;;;;;;;;;;;;;18.15;42.66;103074.47;4996617;28;1080;-46
2023/12/17 01:36:01;;;;;;;;;;;;;;;17.16;44.33;103064.91;4996796;28;1087;-44
2023/12/17 01:38:26;;;;;;;;;;;;;;;17.87;43.30;103056.50;4999741;28;1103;-44
2023/12/17 01:40:52;;;;;;;;;;;;;;;18.01;42.59;103071.00;4994073;28;1084;-46
2023/12/17 01:43:17;;;;;;;;;;;;;;;17.15;44.53;103067.88;4989236;28;1261;-44
2023/12/17 01:45:43;;;;;;;;;;;;;;;16.79;44.61;103069.31;5002992;28;1021;-47
2023/12/17 01:48:08;;;;;;;;;;;;;;;18.30;42.44;103070.25;4990002;28;1211;-44
2023/12/17 01:50:34;;;;;;;;;;;;;;;17.17;44.40;103065.75;4993699;28;1907;-43
2023/12/17 01:52:59;;;;;;;;;;;;;;;16.84;44.54;103062.09;5014585;28;1219;-45
2023/12/17 01:55:25;;;;;;;;;;;;;;;18.12;42.57;103057.31;4991796;28;891;-46
2023/12/17 01:57:50;;;;;;;;;;;;;;;17.08;44.35;103063.28;4998855;28;1154;-44
2023/12/17 02:00:16;;;;;;;;;;;;;;;18.42;41.88;103067.56;4983673;28;1064;-47
2023/12/17 02:02:41;;;;;;;;;;;;;;;18.24;42.25;103067.56;4985441;28;1043;-43
2023/12/17 02:05:07;;;;;;;;;;;;;;;17.31;43.88;103067.34;5001665;28;1186;-45
2023/12/17 02:07:33;;;;;;;;;;;;;;;17.81;43.36;103060.16;4997669;28;1151;-46
2023/12/17 02:09:58;;;;;;;;;;;;;;;17.48;43.79;103058.53;4994388;28;1952;-46
2023/12/17 02:12:27;;;;;;;;;;;;;;;16.98;44.23;103062.88;4996455;28;1131;-45
2023/12/17 02:14:53;;;;;;;;;;;;;;;18.32;42.03;103050.75;4992761;28;1215;-45
2023/12/17 02:17:28;;;;;;;;;;;;;;;17.26;44.35;103058.91;5000242;28;1052;-47
2023/12/17 02:19:54;;;;;;;;;;;;;;;18.90;40.71;103054.06;4992062;28;1199;-47
2023/12/17 02:22:21;;;;;;;;;;;;;;;18.07;42.35;103059.91;5000532;28;1124;-44
2023/12/17 02:24:46;;;;;;;;;;;;;;;17.33;43.97;103064.38;4991946;28;1117;-46
2023/12/17 02:27:18;;;;;;;;;;;;;;;18.27;42.38;103061.59;5011589;28;1283;-46
2023/12/17 02:29:43;;;;;;;;;;;;;;;17.52;43.57;103060.63;4991042;28;1906;-45
2023/12/17 02:32:09;;;;;;;;;;;;;;;17.10;43.87;103061.13;4983433;28;1104;-46
2023/12/17 02:34:34;;;;;;;;;;;;;;;17.43;43.84;103059.19;4994509;28;1131;-46
2023/12/17 02:37:00;;;;;;;;;;;;;;;17.56;43.66;103052.75;4998012;28;1142;-46
2023/12/17 02:39:25;;;;;;;;;;;;;;;16.93;44.54;103060.81;4994564;28;1036;-46
2023/12/17 02:41:51;;;;;;;;;;;;;;;18.10;42.61;103048.47;4999053;28;1145;-45
2023/12/17 02:44:16;;;;;;;;;;;;;;;17.19;44.14;103049.88;4982977;28;993;-45
2023/12/17 02:46:42;;;;;;;;;;;;;;;17.56;43.80;103042.59;5000713;28;1128;-46
2023/12/17 02:49:07;;;;;;;;;;;;;;;17.93;42.66;103047.34;4990766;28;1909;-42
2023/12/17 02:51:33;;;;;;;;;;;;;;;17.06;44.38;103048.88;4980278;28;1143;-47
2023/12/17 02:53:58;;;;;;;;;;;;;;;16.77;44.53;103053.91;4995020;28;1436;-45
2023/12/17 02:56:24;;;;;;;;;;;;;;;17.95;42.64;103051.56;4984081;28;1053;-46
2023/12/17 02:58:49;;;;;;;;;;;;;;;17.05;44.32;103047.19;4999515;28;1118;-46
2023/12/17 03:01:15;;;;;;;;;;;;;;;17.22;44.26;103046.66;4997540;28;1261;-45
2023/12/17 03:03:40;;;;;;;;;;;;;;;17.54;43.41;103038.38;4979805;28;1235;-44
2023/12/17 03:06:06;;;;;;;;;;;;;;;16.89;44.33;103047.75;4992097;28;1200;-48
2023/12/17 03:08:32;;;;;;;;;;;;;;;18.27;42.04;103050.59;4990178;28;1969;-46
2023/12/17 03:10:57;;;;;;;;;;;;;;;17.28;43.85;103052.13;4986586;28;1152;-46
2023/12/17 03:13:23;;;;;;;;;;;;;;;17.33;44.17;103050.63;4988663;28;1099;-42
2023/12/17 03:15:48;;;;;;;;;;;;;;;17.86;42.90;103052.06;4996806;28;1080;-46
2023/12/17 03:18:15;;;;;;;;;;;;;;;17.07;44.43;103050.56;4992865;28;1127;-45
2023/12/17 03:20:41;;;;;;;;;;;;;;;18.66;41.35;103059.44;4985900;28;1134;-46
2023/12/17 03:23:07;;;;;;;;;;;;;;;17.65;43.27;103056.06;4998880;28;1131;-47
2023/12/17 03:25:32;;;;;;;;;;;;;;;17.09;44.11;103058.59;4994759;28;1122;-44
2023/12/17 03:27:58;;;;;;;;;;;;;;;18.20;42.35;103063.59;4990288;28;1155;-46
2023/12/17 03:30:23;;;;;;;;;;;;;;;17.17;43.92;103061.09;4997271;28;2015;-46
2023/12/17 03:32:49;;;;;;;;;;;;;;;16.84;44.08;103064.84;4998783;28;1100;-44
2023/12/17 03:35:15;;;;;;;;;;;;;;;17.72;43.30;103067.84;4998801;28;1110;-46
2023/12/17 03:37:40;;;;;;;;;;;;;;;17.38;43.73;103068.13;4988381;28;1029;-44
2023/12/17 03:40:06;;;;;;;;;;;;;;;17.50;43.68;103065.50;4995847;28;1128;-43
2023/12/17 03:42:32;;;;;;;;;;;;;;;18.59;41.27;103062.28;4992098;28;1276;-44
2023/12/17 03:44:57;;;;;;;;;;;;;;;17.35;43.68;103063.06;4994746;28;1080;-47
2023/12/17 03:47:25;;;;;;;;;;;;;;;17.40;43.84;103066.00;5003359;28;1207;-44
2023/12/17 03:49:50;;;;;;;;;;;;;;;17.54;43.18;103065.88;4992221;28;1902;-44
2023/12/17 03:52:16;;;;;;;;;;;;;;;17.26;44.27;103064.41;4978436;28;1045;-46
2023/12/17 03:54:41;;;;;;;;;;;;;;;18.83;40.71;103059.66;4984391;28;1107;-44
2023/12/17 03:57:07;;;;;;;;;;;;;;;17.51;43.38;103074.59;4988152;28;1041;-46
2023/12/17 03:59:32;;;;;;;;;;;;;;;16.98;44.23;103067.56;4995025;28;1119;-45
2023/12/17 04:02:01;;;;;;;;;;;;;;;18.00;42.30;103064.66;4997622;28;1135;-44
2023/12/17 04:04:27;;;;;;;;;;;;;;;17.18;43.82;103062.78;4984865;28;1142;-48
2023/12/17 04:06:52;;;;;;;;;;;;;;;17.94;42.48;103063.66;4994018;28;1203;-44
2023/12/17 04:09:19;;;;;;;;;;;;;;;17.48;43.52;103055.78;4993822;28;1959;-45
2023/12/17 04:11:44;;;;;;;;;;;;;;;17.33;43.96;103059.69;4988969;28;1427;-43
2023/12/17 04:14:10;;;;;;;;;;;;;;;18.55;41.08;103051.94;4993654;28;1027;-44
2023/12/17 04:16:35;;;;;;;;;;;;;;;17.31;43.69;103055.50;4976928;28;1322;-43
2023/12/17 04:19:01;;;;;;;;;;;;;;;17.15;44.19;103057.69;4988192;28;1061;-43
2023/12/17 04:21:27;;;;;;;;;;;;;;;17.83;42.53;103063.53;4985410;28;1036;-46
2023/12/17 04:23:53;;;;;;;;;;;;;;;17.42;43.70;103063.88;4990969;28;1076;-39
2023/12/17 04:26:19;;;;;;;;;;;;;;;19.01;40.30;103066.22;4977875;28;2848;-38
2023/12/17 04:28:44;;;;;;;;;;;;;;;17.75;42.69;103071.00;4982497;28;1926;-40
2023/12/17 04:31:10;;;;;;;;;;;;;;;17.20;43.88;103066.13;4984468;28;2103;-44
2023/12/17 04:33:35;;;;;;;;;;;;;;;17.97;42.36;103073.38;4983991;28;1817;-41
2023/12/17 04:36:01;;;;;;;;;;;;;;;17.28;43.48;103065.03;4984534;28;2190;-44
2023/12/17 04:38:27;;;;;;;;;;;;;;;16.94;43.98;103075.38;4978776;28;1867;-43
2023/12/17 04:40:52;;;;;;;;;;;;;;;18.17;42.28;103072.31;4987363;28;1014;-42
2023/12/17 04:43:18;;;;;;;;;;;;;;;17.12;43.87;103069.16;4990152;28;1178;-48
2023/12/17 04:45:43;;;;;;;;;;;;;;;18.07;42.40;103070.91;4983238;28;997;-43
2023/12/17 04:48:09;;;;;;;;;;;;;;;18.02;42.21;103073.53;4995572;28;878;-46
2023/12/17 04:50:34;;;;;;;;;;;;;;;17.15;43.94;103078.88;4982649;28;1913;-44
2023/12/17 04:53:00;;;;;;;;;;;;;;;17.16;44.16;103086.06;4985033;28;1103;-44
2023/12/17 04:55:25;;;;;;;;;;;;;;;17.64;43.11;103085.47;4992872;28;1003;-45
2023/12/17 04:57:51;;;;;;;;;;;;;;;17.82;42.83;103083.84;4989455;28;968;-46
2023/12/17 05:00:16;;;;;;;;;;;;;;;19.07;40.10;103082.66;4967169;28;1278;-46
2023/12/17 05:02:42;;;;;;;;;;;;;;;17.72;42.69;103087.94;4990075;28;1128;-45
2023/12/17 05:05:07;;;;;;;;;;;;;;;17.20;43.67;103081.81;4989756;28;1137;-45
2023/12/17 05:07:33;;;;;;;;;;;;;;;18.17;42.01;103089.66;4994976;28;875;-48
2023/12/17 05:09:59;;;;;;;;;;;;;;;17.33;43.54;103091.88;4994497;28;2397;-46
2023/12/17 05:12:24;;;;;;;;;;;;;;;17.45;43.72;103096.41;4989020;28;1132;-46
2023/12/17 05:14:50;;;;;;;;;;;;;;;17.97;42.26;103097.31;4977388;28;1113;-47
2023/12/17 05:17:15;;;;;;;;;;;;;;;17.12;43.74;103098.56;4996388;28;1060;-44
2023/12/17 05:19:41;;;;;;;;;;;;;;;18.40;41.48;103105.53;4991662;28;1084;-43
2023/12/17 05:22:06;;;;;;;;;;;;;;;17.52;43.20;103098.28;4984586;28;1055;-42
2023/12/17 05:24:32;;;;;;;;;;;;;;;17.97;42.36;103103.66;4983936;28;1510;-46
2023/12/17 05:26:57;;;;;;;;;;;;;;;18.80;40.40;103104.19;4976436;28;1030;-45
2023/12/17 05:29:23;;;;;;;;;;;;;;;17.82;42.27;103101.19;4977326;28;1914;-43
2023/12/17 05:31:49;;;;;;;;;;;;;;;17.33;43.61;103109.19;4990991;28;1414;-46
2023/12/17 05:34:15;;;;;;;;;;;;;;;17.04;44.16;103106.00;4984638;28;1206;-43
2023/12/17 05:36:41;;;;;;;;;;;;;;;16.71;45.03;103112.44;4980248;28;1056;-48
2023/12/17 05:39:06;;;;;;;;;;;;;;;16.52;45.14;103107.88;4977312;28;2372;-42
2023/12/17 05:41:32;;;;;;;;;;;;;;;16.28;45.81;103110.25;4991724;28;1050;-46
2023/12/17 05:43:57;;;;;;;;;;;;;;;15.99;46.41;103111.56;4985815;28;1038;-43
2023/12/17 05:46:23;;;;;;;;;;;;;;;15.81;46.54;103110.34;4991449;28;1033;-44
2023/12/17 05:48:49;;;;;;;;;;;;;;;15.74;46.85;103121.25;4995784;28;1910;-46
2023/12/17 05:51:14;;;;;;;;;;;;;;;15.59;47.03;103126.09;4981037;28;1077;-42
2023/12/17 05:53:40;;;;;;;;;;;;;;;15.66;46.94;103113.25;4984871;28;1008;-46
2023/12/17 05:56:05;;;;;;;;;;;;;;;17.24;43.64;103121.53;4987246;28;1147;-46
2023/12/17 05:58:31;;;;;;;;;;;;;;;16.57;44.44;103124.56;4995745;28;1083;-43
2023/12/17 06:00:57;;;;;;;;;;;;;;;15.97;46.17;103114.53;4983160;28;1016;-47
2023/12/17 06:03:22;;;;;;;;;;;;;;;15.72;46.55;103120.66;4987689;28;1120;-45
2023/12/17 06:05:48;;;;;;;;;;;;;;;16.40;45.42;103125.03;4991120;28;978;-47
2023/12/17 06:08:13;;;;;;;;;;;;;;;17.37;42.55;103126.94;4984800;28;2328;-44
2023/12/17 06:10:39;;;;;;;;;;;;;;;16.41;44.98;103126.72;4988996;28;1966;-45
2023/12/17 06:13:05;;;;;;;;;;;;;;;15.99;45.73;103128.91;4984500;28;1157;-44
2023/12/17 06:15:30;;;;;;;;;;;;;;;15.69;46.57;103128.44;4982726;28;1093;-47
2023/12/17 06:17:56;;;;;;;;;;;;;;;16.67;44.34;103122.19;4995632;28;1018;-45
2023/12/17 06:20:21;;;;;;;;;;;;;;;16.98;43.38;103128.84;4986413;28;1150;-46
2023/12/17 06:22:49;;;;;;;;;;;;;;;16.13;45.59;103120.63;4995820;28;1039;-47
2023/12/17 06:25:15;;;;;;;;;;;;;;;15.74;46.30;103120.44;4986215;28;1047;-47
2023/12/17 06:27:41;;;;;;;;;;;;;;;15.73;46.51;103122.31;4999268;28;1028;-45
2023/12/17 06:30:07;;;;;;;;;;;;;;;17.26;43.17;103124.91;4998966;28;1906;-46
2023/12/17 06:32:32;;;;;;;;;;;;;;;17.02;43.07;103119.09;4996725;28;861;-47
2023/12/17 06:34:58;;;;;;;;;;;;;;;16.21;45.26;103112.19;4999179;28;1072;-45
2023/12/17 06:37:23;;;;;;;;;;;;;;;15.82;46.08;103105.69;4998878;28;1207;-47
2023/12/17 06:39:50;;;;;;;;;;;;;;;15.65;46.60;103107.97;4984968;28;2322;-45
2023/12/17 06:42:15;;;;;;;;;;;;;;;17.12;43.37;103115.06;4986871;28;1056;-44
2023/12/17 06:44:41;;;;;;;;;;;;;;;16.89;43.59;103102.69;4987939;28;1063;-43
2023/12/17 06:47:06;;;;;;;;;;;;;;;16.16;45.33;103093.63;4998982;28;1076;-43
2023/12/17 06:49:32;;;;;;;;;;;;;;;15.80;45.91;103100.41;4998906;28;1898;-46
2023/12/17 06:51:57;;;;;;;;;;;;;;;16.77;43.98;103106.09;4991498;28;1115;-45
2023/12/17 06:54:23;;;;;;;;;;;;;;;17.09;43.30;103114.41;4992204;28;1071;-43
2023/12/17 06:56:48;;;;;;;;;;;;;;;16.16;45.14;103109.22;4990858;28;934;-43
2023/12/17 06:59:14;;;;;;;;;;;;;;;15.86;46.05;103110.53;4985781;28;1063;-46
2023/12/17 07:01:39;;;;;;;;;;;;;;;16.32;44.95;103106.03;4998811;28;1087;-47
2023/12/17 07:04:05;;;;;;;;;;;;;;;17.40;42.47;103115.50;4985749;28;1148;-43
2023/12/17 07:06:30;;;;;;;;;;;;;;;16.38;44.56;103112.56;4991735;28;1175;-49
2023/12/17 07:08:56;;;;;;;;;;;;;;;15.92;45.87;103103.34;4980447;28;2288;-47
2023/12/17 07:11:22;;;;;;;;;;;;;;;15.67;46.42;103112.19;4991662;28;1512;-46
2023/12/17 07:13:49;;;;;;;;;;;;;;;16.90;43.84;103115.34;4979373;28;1207;-43
2023/12/17 07:16:21;;;;;;;;;;;;;;;17.14;43.02;103118.41;4979064;28;1180;-48
2023/12/17 07:18:46;;;;;;;;;;;;;;;16.22;44.75;103108.38;4993471;28;973;-45
2023/12/17 07:21:12;;;;;;;;;;;;;;;15.84;45.78;103104.41;4992829;28;854;-42
2023/12/17 07:23:37;;;;;;;;;;;;;;;16.58;44.39;103110.59;4997747;28;1465;-44
2023/12/17 07:26:03;;;;;;;;;;;;;;;17.41;42.29;103106.19;4998542;28;1151;-44
2023/12/17 07:28:28;;;;;;;;;;;;;;;16.39;44.70;103093.13;4985362;28;1956;-45
2023/12/17 07:30:54;;;;;;;;;;;;;;;16.01;45.32;103101.25;4997954;28;1036;-45
2023/12/17 07:33:19;;;;;;;;;;;;;;;16.03;45.47;103096.38;4985117;28;989;-48
2023/12/17 07:35:45;;;;;;;;;;;;;;;17.44;42.30;103094.72;4990045;28;1167;-47
2023/12/17 07:38:10;;;;;;;;;;;;;;;16.51;44.21;103098.81;4991348;28;1755;-48
2023/12/17 07:40:36;;;;;;;;;;;;;;;15.95;45.47;103091.09;4986634;28;996;-46
2023/12/17 07:43:01;;;;;;;;;;;;;;;16.01;45.66;103091.09;4997541;28;1038;-47
2023/12/17 07:45:28;;;;;;;;;;;;;;;17.44;42.24;103091.16;4984021;28;935;-47
2023/12/17 07:47:54;;;;;;;;;;;;;;;16.73;43.66;103091.13;4992012;28;1021;-41
2023/12/17 07:50:19;;;;;;;;;;;;;;;16.18;44.91;103096.16;4990180;28;1906;-46
2023/12/17 07:52:46;;;;;;;;;;;;;;;15.74;45.81;103093.84;4978263;28;1044;-47
2023/12/17 07:55:11;;;;;;;;;;;;;;;15.60;46.32;103105.88;4978878;28;1056;-43
2023/12/17 07:57:37;;;;;;;;;;;;;;;16.92;43.55;103107.75;4992873;28;997;-44
2023/12/17 08:00:03;;;;;;;;;;;;;;;17.06;42.96;103114.84;4997963;28;1012;-51
2023/12/17 08:02:36;;;;;;;;;;;;;;;16.21;44.66;103107.53;4998261;28;1036;-45
2023/12/17 08:05:02;;;;;;;;;;;;;;;15.85;45.63;103108.00;4989644;28;1131;-48
2023/12/17 08:07:27;;;;;;;;;;;;;;;16.85;43.52;103102.25;4991050;28;1112;-44
2023/12/17 08:09:53;;;;;;;;;;;;;;;17.24;42.46;103105.88;4987556;28;2001;-49
2023/12/17 08:12:19;;;;;;;;;;;;;;;16.33;44.37;103094.00;4984932;28;1136;-50
2023/12/17 08:14:45;;;;;;;;;;;;;;;15.90;45.49;103100.81;4997960;28;984;-45
2023/12/17 08:17:10;;;;;;;;;;;;;;;16.39;44.69;103093.13;4984762;28;1136;-47
2023/12/17 08:19:36;;;;;;;;;;;;;;;17.43;42.22;103092.19;4989080;28;1122;-48
2023/12/17 08:22:02;;;;;;;;;;;;;;;16.43;44.40;103099.88;4980994;28;922;-48
2023/12/17 08:24:28;;;;;;;;;;;;;;;16.00;45.21;103103.13;4997747;28;1056;-46
2023/12/17 08:26:54;;;;;;;;;;;;;;;15.77;46.07;103092.56;4996850;28;1079;-48
2023/12/17 08:29:20;;;;;;;;;;;;;;;17.30;42.62;103086.81;4997353;28;1976;-46
2023/12/17 08:31:45;;;;;;;;;;;;;;;16.53;44.14;103077.44;4984018;28;1144;-46
2023/12/17 08:34:11;;;;;;;;;;;;;;;16.03;45.40;103071.66;4980267;28;958;-43
2023/12/17 08:36:37;;;;;;;;;;;;;;;15.79;45.92;103064.94;4992198;28;1018;-46
2023/12/17 08:39:05;;;;;;;;;;;;;;;17.12;43.02;103060.06;4989239;28;1870;-49
2023/12/17 08:41:33;;;;;;;;;;;;;;;16.77;43.50;103070.38;4990429;28;1008;-47
2023/12/17 08:43:58;;;;;;;;;;;;;;;16.20;45.04;103063.81;4977169;28;1083;-46
2023/12/17 08:46:24;;;;;;;;;;;;;;;15.87;45.49;103062.81;4993331;28;913;-47
2023/12/17 08:48:49;;;;;;;;;;;;;;;17.05;43.02;103060.94;4985705;28;1979;-47
2023/12/17 08:51:15;;;;;;;;;;;;;;;16.89;43.29;103059.56;4983539;28;1060;-45
2023/12/17 08:53:41;;;;;;;;;;;;;;;16.19;44.74;103056.66;4996564;28;992;-46
2023/12/17 08:56:09;;;;;;;;;;;;;;;15.90;45.72;103051.41;4996228;28;1047;-45
2023/12/17 08:58:35;;;;;;;;;;;;;;;16.60;44.30;103050.78;4986041;28;1041;-47
2023/12/17 09:01:00;;;;;;;;;;;;;;;17.73;41.63;103042.88;4994588;28;1057;-44
2023/12/17 09:03:26;;;;;;;;;;;;;;;16.59;44.15;103038.13;4984603;28;1053;-46
2023/12/17 09:05:51;;;;;;;;;;;;;;;16.13;45.32;103039.16;4983731;28;1200;-48
2023/12/17 09:08:17;;;;;;;;;;;;;;;15.84;45.72;103045.97;5003569;28;1874;-45
2023/12/17 09:10:43;;;;;;;;;;;;;;;16.91;43.41;103042.84;4988858;28;2334;-44
2023/12/17 09:13:11;;;;;;;;;;;;;;;17.14;42.89;103038.69;4977277;28;1189;-48
2023/12/17 09:15:37;;;;;;;;;;;;;;;16.33;44.61;103046.50;4991823;28;1096;-46
2023/12/17 09:18:03;;;;;;;;;;;;;;;15.99;45.42;103043.81;4996295;28;1024;-45
2023/12/17 09:20:29;;;;;;;;;;;;;;;16.78;43.86;103041.00;4995502;28;1047;-46
2023/12/17 09:22:54;;;;;;;;;;;;;;;17.30;42.60;103043.66;4985278;28;1017;-49
2023/12/17 09:25:20;;;;;;;;;;;;;;;16.44;44.44;103043.06;4980866;28;1116;-48
2023/12/17 09:27:45;;;;;;;;;;;;;;;15.93;45.47;103039.19;4985770;28;1080;-47
2023/12/17 09:30:11;;;;;;;;;;;;;;;16.33;44.77;103036.34;4993407;28;1984;-48
2023/12/17 09:32:37;;;;;;;;;;;;;;;17.57;42.11;103037.91;5000558;28;1064;-46
2023/12/17 09:35:03;;;;;;;;;;;;;;;16.65;43.79;103039.16;4983686;28;1092;-48
2023/12/17 09:37:28;;;;;;;;;;;;;;;16.19;45.07;103029.22;4995736;28;1095;-48
2023/12/17 09:39:54;;;;;;;;;;;;;;;15.81;45.92;103024.41;4983537;28;1803;-46
2023/12/17 09:42:20;;;;;;;;;;;;;;;17.03;43.17;103024.59;4988073;28;1191;-47
2023/12/17 09:44:46;;;;;;;;;;;;;;;17.26;42.49;103012.16;4990291;28;1085;-47
2023/12/17 09:47:11;;;;;;;;;;;;;;;16.34;44.49;103023.44;4995920;28;1072;-47
2023/12/17 09:49:37;;;;;;;;;;;;;;;16.03;45.30;103019.53;4982839;28;1906;-47
2023/12/17 09:52:06;;;;;;;;;;;;;;;16.04;45.64;103021.22;4994937;28;937;-44
2023/12/17 09:54:32;;;;;;;;;;;;;;;17.48;42.25;103007.13;4983361;28;1017;-44
2023/12/17 09:56:57;;;;;;;;;;;;;;;16.70;43.92;103000.03;4988900;28;1088;-47
2023/12/17 09:59:23;;;;;;;;;;;;;;;16.14;45.28;103004.31;4983644;28;1126;-48
2023/12/17 10:01:48;;;;;;;;;;;;;;;15.80;46.09;103004.38;5006054;28;1003;-48
2023/12/17 10:04:14;;;;;;;;;;;;;;;15.83;45.88;103005.88;4996122;28;1195;-43
2023/12/17 10:06:40;;;;;;;;;;;;;;;17.30;42.48;102994.16;4999574;28;1045;-50
2023/12/17 10:09:06;;;;;;;;;;;;;;;16.74;43.85;103002.13;4985844;28;2336;-49
2023/12/17 10:11:32;;;;;;;;;;;;;;;16.17;45.19;103001.97;4990947;28;1055;-47
2023/12/17 10:13:59;;;;;;;;;;;;;;;15.83;45.76;102994.88;4995000;28;1009;-48
2023/12/17 10:16:25;;;;;;;;;;;;;;;16.31;44.82;103004.66;4989076;28;1191;-46
2023/12/17 10:18:51;;;;;;;;;;;;;;;17.58;41.95;102995.59;4982687;28;981;-46
2023/12/17 10:21:17;;;;;;;;;;;;;;;16.66;43.90;102998.78;4996693;28;1011;-49
2023/12/17 10:23:46;;;;;;;;;;;;;;;16.06;45.46;102999.88;4993176;28;981;-48
2023/12/17 10:26:12;;;;;;;;;;;;;;;15.86;45.91;102988.97;4980021;28;1056;-47
2023/12/17 10:28:37;;;;;;;;;;;;;;;17.37;42.62;102983.94;4995996;28;1970;-45
2023/12/17 10:31:03;;;;;;;;;;;;;;;16.83;43.45;102978.00;4999409;28;1005;-46
2023/12/17 10:33:29;;;;;;;;;;;;;;;16.23;44.88;102983.81;4998260;28;1079;-45
2023/12/17 10:35:54;;;;;;;;;;;;;;;15.94;45.67;102979.69;4988540;28;1179;-51
2023/12/17 10:38:20;;;;;;;;;;;;;;;16.71;44.08;102975.09;4979268;28;2220;-45
2023/12/17 10:40:45;;;;;;;;;;;;;;;17.43;42.15;102976.69;4988449;28;1105;-47
2023/12/17 10:43:12;;;;;;;;;;;;;;;16.46;44.47;102972.28;4985967;28;1221;-49
2023/12/17 10:45:38;;;;;;;;;;;;;;;16.13;45.22;102977.91;4993669;28;1043;-49
2023/12/17 10:48:03;;;;;;;;;;;;;;;15.82;46.11;102979.47;4992847;28;1195;-47
2023/12/17 10:50:29;;;;;;;;;;;;;;;17.16;43.02;102965.09;4978507;28;1914;-47
2023/12/17 10:52:54;;;;;;;;;;;;;;;17.04;43.14;102963.06;4982109;28;1060;-48
2023/12/17 10:55:20;;;;;;;;;;;;;;;16.23;44.90;102957.19;4990277;28;1091;-49
2023/12/17 10:57:56;;;;;;;;;;;;;;;15.87;45.90;102955.00;4989974;28;1279;-44
2023/12/17 11:00:23;;;;;;;;;;;;;;;16.02;45.60;102952.84;4989298;28;1061;-46
2023/12/17 11:02:49;;;;;;;;;;;;;;;17.47;42.30;102939.41;4984420;28;1141;-46
2023/12/17 11:05:15;;;;;;;;;;;;;;;16.67;43.83;102940.06;4988169;28;1219;-49
2023/12/17 11:07:40;;;;;;;;;;;;;;;16.07;45.38;102936.56;4996555;28;990;-45
2023/12/17 11:10:06;;;;;;;;;;;;;;;15.83;46.00;102923.56;4987973;28;2527;-47
2023/12/17 11:12:33;;;;;;;;;;;;;;;16.59;44.29;102932.91;4985737;28;1183;-44
2023/12/17 11:14:59;;;;;;;;;;;;;;;17.53;42.10;102926.66;4998184;28;1016;-48
2023/12/17 11:17:24;;;;;;;;;;;;;;;16.53;44.09;102931.88;4984465;28;1164;-46
2023/12/17 11:19:56;;;;;;;;;;;;;;;16.05;45.33;102932.34;4998692;28;1062;-49
2023/12/17 11:22:22;;;;;;;;;;;;;;;15.83;46.04;102929.88;4995498;28;973;-47
2023/12/17 11:24:48;;;;;;;;;;;;;;;17.36;42.69;102932.78;4987164;28;1136;-48
2023/12/17 11:27:14;;;;;;;;;;;;;;;16.68;43.80;102936.25;4995536;28;1180;-45
2023/12/17 11:29:40;;;;;;;;;;;;;;;16.15;45.40;102932.72;4997091;28;1982;-45
2023/12/17 11:32:06;;;;;;;;;;;;;;;15.78;45.91;102942.53;4985718;28;1238;-47
2023/12/17 11:34:32;;;;;;;;;;;;;;;16.79;43.84;102942.91;4989024;28;1084;-50
2023/12/17 11:36:57;;;;;;;;;;;;;;;17.34;42.54;102940.38;4994741;28;1013;-46
2023/12/17 11:39:24;;;;;;;;;;;;;;;16.42;44.70;102935.31;4988410;28;1892;-48
2023/12/17 11:41:49;;;;;;;;;;;;;;;16.03;45.72;102939.94;4990511;28;1045;-47
2023/12/17 11:44:15;;;;;;;;;;;;;;;16.04;45.57;102934.22;4989604;28;1026;-48
2023/12/17 11:46:40;;;;;;;;;;;;;;;17.49;42.29;102926.28;4989097;28;1352;-46
2023/12/17 11:49:06;;;;;;;;;;;;;;;16.58;44.32;102925.75;4987128;28;1919;-47
2023/12/17 11:51:32;;;;;;;;;;;;;;;16.11;45.30;102922.41;4991659;28;1064;-47
2023/12/17 11:53:58;;;;;;;;;;;;;;;15.86;45.96;102917.63;4990095;28;1132;-47
2023/12/17 11:56:29;;;;;;;;;;;;;;;16.30;45.10;102915.97;4993046;28;1041;-49
2023/12/17 11:58:55;;;;;;;;;;;;;;;17.43;42.34;102900.53;4988442;28;1049;-45
2023/12/17 12:01:20;;;;;;;;;;;;;;;16.49;44.43;102907.84;4997438;28;1147;-50
2023/12/17 12:03:46;;;;;;;;;;;;;;;15.97;45.80;102905.97;4996598;28;1118;-46
2023/12/17 12:06:12;;;;;;;;;;;;;;;15.98;45.87;102902.19;4997273;28;1016;-47
2023/12/17 12:08:48;;;;;;;;;;;;;;;17.45;42.67;102898.38;4993156;28;2429;-48
2023/12/17 12:11:14;;;;;;;;;;;;;;;16.54;44.30;102905.28;4982475;28;843;-47
2023/12/17 12:13:43;;;;;;;;;;;;;;;16.08;45.39;102894.31;4997365;28;996;-47
2023/12/17 12:16:09;;;;;;;;;;;;;;;15.83;46.02;102893.38;4972881;28;999;-48
2023/12/17 12:18:35;;;;;;;;;;;;;;;17.20;43.06;102892.94;4997507;28;1063;-44
2023/12/17 12:21:00;;;;;;;;;;;;;;;17.14;43.03;102895.72;4989766;28;1321;-46
2023/12/17 12:23:26;;;;;;;;;;;;;;;16.30;44.88;102896.75;4990459;28;1018;-48
2023/12/17 12:25:58;;;;;;;;;;;;;;;16.02;45.44;102906.19;4997455;28;1059;-48
2023/12/17 12:28:23;;;;;;;;;;;;;;;15.79;46.22;102900.31;4982524;28;1004;-48
2023/12/17 12:30:49;;;;;;;;;;;;;;;17.26;43.02;102904.94;4985870;28;1910;-48
2023/12/17 12:33:15;;;;;;;;;;;;;;;16.75;43.59;102899.41;4984138;28;1112;-47
2023/12/17 12:35:41;;;;;;;;;;;;;;;16.17;44.97;102899.56;4983126;28;897;-46
2023/12/17 12:38:22;;;;;;;;;;;;;;;15.87;45.80;102906.44;4979463;28;2309;-49
2023/12/17 12:40:48;;;;;;;;;;;;;;;16.88;43.67;102897.63;4987244;28;982;-47